Time;durP1;ratioP1;P1;durP2;ratioP2;P2;SDS_P1;SDS_P2;PMS_P1;PMS_P2;Temp;Humidity;BMP_temperature;BMP_pressure;BME280_temperature;BME280_humidity;BME280_pressure;Samples;Min_cycle;Max_cycle;Signal;HPM_P1;HPM_P2
2022/05/08 00:00:31;;;;;;;16.23;14.68;;;15.30;99.90;;;;;;5016560;28;20034;-53
2022/05/08 00:02:58;;;;;;;16.73;15.07;;;15.10;99.90;;;;;;5015513;28;20045;-54
2022/05/08 00:05:27;;;;;;;17.95;16.10;;;15.00;99.90;;;;;;5015858;28;20021;-50
2022/05/08 00:07:53;;;;;;;17.02;15.32;;;14.90;99.90;;;;;;5015033;28;20069;-54
2022/05/08 00:10:18;;;;;;;17.08;15.35;;;14.80;99.90;;;;;;5015771;28;20041;-56
2022/05/08 00:12:44;;;;;;;16.95;15.15;;;14.80;99.90;;;;;;5014833;28;20553;-55
2022/05/08 00:15:10;;;;;;;17.45;15.57;;;14.70;99.90;;;;;;5015476;28;20044;-54
2022/05/08 00:17:36;;;;;;;17.50;15.80;;;14.70;99.90;;;;;;5015421;28;20029;-54
2022/05/08 00:20:05;;;;;;;16.98;15.38;;;14.70;99.90;;;;;;5013629;28;20062;-55
2022/05/08 00:22:30;;;;;;;17.80;16.05;;;14.70;99.90;;;;;;5014916;28;20422;-54
2022/05/08 00:24:56;;;;;;;16.83;15.15;;;14.70;99.90;;;;;;5014223;28;20026;-52
2022/05/08 00:27:22;;;;;;;18.08;16.27;;;14.50;99.90;;;;;;5015409;28;20568;-51
2022/05/08 00:29:47;;;;;;;18.35;16.42;;;14.50;99.90;;;;;;5014688;28;20052;-51
2022/05/08 00:32:13;;;;;;;18.63;15.50;;;14.40;99.90;;;;;;5014683;28;20124;-53
2022/05/08 00:34:38;;;;;;;18.08;16.20;;;14.50;99.90;;;;;;5015589;28;20502;-52
2022/05/08 00:37:05;;;;;;;17.20;15.50;;;14.50;99.90;;;;;;5014876;28;20409;-52
2022/05/08 00:39:32;;;;;;;18.60;16.77;;;14.50;99.90;;;;;;5015532;28;20026;-55
2022/05/08 00:41:58;;;;;;;17.73;15.52;;;14.40;99.90;;;;;;5014612;28;20045;-52
2022/05/08 00:44:24;;;;;;;22.00;15.55;;;14.30;99.90;;;;;;5015116;28;20517;-53
2022/05/08 00:46:49;;;;;;;17.85;16.05;;;14.30;99.90;;;;;;5015395;28;20037;-56
2022/05/08 00:49:15;;;;;;;18.83;16.83;;;14.30;99.90;;;;;;5015205;28;20402;-55
2022/05/08 00:51:43;;;;;;;17.20;15.48;;;14.20;99.90;;;;;;5015161;28;20030;-53
2022/05/08 00:54:09;;;;;;;18.15;16.45;;;14.30;99.90;;;;;;5014392;28;20026;-54
2022/05/08 00:56:35;;;;;;;18.83;16.13;;;14.30;99.90;;;;;;5014418;28;20041;-56
2022/05/08 00:59:01;;;;;;;19.75;16.60;;;14.20;99.90;;;;;;5014073;28;20117;-56
2022/05/08 01:01:28;;;;;;;18.70;16.70;;;14.30;99.90;;;;;;5014650;28;20571;-53
2022/05/08 01:03:53;;;;;;;17.30;15.57;;;14.30;99.90;;;;;;5013705;28;20026;-53
2022/05/08 01:06:19;;;;;;;20.15;16.42;;;14.10;99.90;;;;;;5025563;28;20095;-51
2022/05/08 01:08:50;;;;;;;18.27;16.27;;;14.10;99.90;;;;;;5032977;28;20041;-53
2022/05/08 01:11:16;;;;;;;18.35;16.35;;;14.10;99.90;;;;;;5017707;28;20029;-52
2022/05/08 01:13:43;;;;;;;18.23;15.52;;;14.00;99.90;;;;;;5014121;28;20065;-50
2022/05/08 01:16:11;;;;;;;19.10;16.13;;;14.10;99.90;;;;;;5012853;28;20088;-53
2022/05/08 01:18:38;;;;;;;18.38;16.52;;;14.10;99.90;;;;;;5010627;28;20038;-53
2022/05/08 01:21:07;;;;;;;18.70;15.93;;;14.10;99.90;;;;;;5013000;28;20037;-52
2022/05/08 01:23:33;;;;;;;20.80;16.25;;;14.20;99.90;;;;;;5007751;28;20060;-54
2022/05/08 01:25:58;;;;;;;20.67;16.17;;;14.10;99.90;;;;;;5013450;28;20057;-53
2022/05/08 01:28:25;;;;;;;19.73;17.33;;;14.00;99.90;;;;;;5011426;28;20428;-55
2022/05/08 01:30:52;;;;;;;18.98;16.98;;;14.10;99.90;;;;;;5011437;28;20022;-53
2022/05/08 01:33:19;;;;;;;20.00;16.85;;;14.00;99.90;;;;;;5013032;28;20498;-53
2022/05/08 01:35:45;;;;;;;25.55;18.25;;;14.00;99.90;;;;;;5013535;28;20050;-53
2022/05/08 01:38:13;;;;;;;18.85;16.98;;;14.00;99.90;;;;;;5013441;28;20121;-53
2022/05/08 01:40:39;;;;;;;24.17;17.77;;;14.00;99.90;;;;;;5014299;28;20498;-53
2022/05/08 01:43:07;;;;;;;19.77;17.67;;;14.00;99.90;;;;;;5012326;28;20045;-53
2022/05/08 01:45:33;;;;;;;20.27;18.08;;;14.00;99.90;;;;;;5013282;28;20030;-55
2022/05/08 01:50:43;;;;;;;;;;;13.80;99.90;;;;;;5013850;28;20025;-52
2022/05/08 01:53:09;;;;;;;19.60;17.55;;;13.80;99.90;;;;;;5013401;28;19971;-55
2022/05/08 01:55:35;;;;;;;20.73;18.45;;;13.80;99.90;;;;;;5013797;28;20037;-52
2022/05/08 01:58:01;;;;;;;22.83;17.83;;;13.90;99.90;;;;;;5014279;28;20040;-53
2022/05/08 02:00:28;;;;;;;22.02;18.17;;;13.80;99.90;;;;;;5014353;28;20057;-54
2022/05/08 02:02:58;;;;;;;21.50;18.08;;;13.80;99.90;;;;;;5013719;28;20022;-51
2022/05/08 02:05:23;;;;;;;20.63;18.38;;;13.80;99.90;;;;;;5001047;28;20120;-51
2022/05/08 02:07:49;;;;;;;22.17;18.80;;;13.90;99.90;;;;;;5012909;28;20034;-53
2022/05/08 02:10:17;;;;;;;20.85;17.33;;;13.80;99.90;;;;;;5013793;28;20037;-49
2022/05/08 02:12:44;;;;;;;19.85;16.77;;;13.80;99.90;;;;;;5012167;28;20147;-54
2022/05/08 02:15:11;;;;;;;19.75;16.63;;;13.80;99.90;;;;;;5013526;28;20036;-53
2022/05/08 02:17:37;;;;;;;19.83;16.42;;;13.90;99.90;;;;;;5013176;28;20022;-53
2022/05/08 02:20:06;;;;;;;20.52;15.88;;;13.80;99.90;;;;;;5014293;28;20022;-54
2022/05/08 02:22:32;;;;;;;19.15;16.63;;;13.70;99.90;;;;;;5013755;28;20026;-51
2022/05/08 02:24:58;;;;;;;17.17;15.13;;;13.70;99.90;;;;;;5012913;28;20040;-55
2022/05/08 02:27:24;;;;;;;18.27;16.33;;;13.70;99.90;;;;;;5013157;28;20022;-49
2022/05/08 02:29:50;;;;;;;17.52;15.45;;;13.70;99.90;;;;;;5012666;28;20034;-51
2022/05/08 02:32:16;;;;;;;17.40;15.25;;;13.70;99.90;;;;;;5012609;28;20077;-55
2022/05/08 02:34:42;;;;;;;17.35;15.57;;;13.50;99.90;;;;;;5012330;28;20045;-49
2022/05/08 02:37:08;;;;;;;18.27;16.05;;;13.50;99.90;;;;;;5012733;28;20041;-49
2022/05/08 02:39:34;;;;;;;18.70;15.27;;;13.50;99.90;;;;;;5013575;28;20036;-51
2022/05/08 02:41:59;;;;;;;18.85;15.18;;;13.50;99.90;;;;;;5012220;28;20029;-53
2022/05/08 02:44:25;;;;;;;16.83;15.05;;;13.50;99.90;;;;;;5012843;28;20460;-54
2022/05/08 02:46:50;;;;;;;16.75;14.95;;;13.60;99.90;;;;;;5011659;28;20027;-55
2022/05/08 02:49:16;;;;;;;19.25;15.10;;;13.60;99.90;;;;;;5012143;28;20117;-52
2022/05/08 02:51:42;;;;;;;17.73;15.45;;;13.30;99.90;;;;;;5013410;28;20046;-52
2022/05/08 02:54:07;;;;;;;16.73;14.95;;;13.30;99.90;;;;;;5012105;28;20172;-54
2022/05/08 02:59:18;;;;;;;20.33;15.55;;;13.40;99.90;;;;;;5012518;28;20026;-55
2022/05/08 03:01:43;;;;;;;18.13;15.35;;;13.50;99.90;;;;;;5013045;28;20034;-51
2022/05/08 03:04:09;;;;;;;17.05;14.93;;;13.40;99.90;;;;;;5012276;28;20489;-53
2022/05/08 03:06:34;;;;;;;19.98;15.73;;;13.40;99.90;;;;;;5013483;28;20478;-56
2022/05/08 03:09:00;;;;;;;19.35;15.15;;;13.40;99.90;;;;;;5012615;28;20048;-53
2022/05/08 03:11:26;;;;;;;17.95;15.18;;;13.50;99.90;;;;;;5012235;28;20033;-52
2022/05/08 03:13:53;;;;;;;18.33;15.35;;;13.60;99.90;;;;;;5012823;28;20107;-51
2022/05/08 03:16:19;;;;;;;17.38;15.20;;;13.40;99.90;;;;;;5011567;28;20103;-55
2022/05/08 03:18:45;;;;;;;18.65;15.38;;;13.50;99.90;;;;;;5012520;28;20037;-53
2022/05/08 03:21:12;;;;;;;17.40;15.70;;;13.50;99.90;;;;;;5032482;28;20452;-53
2022/05/08 03:23:42;;;;;;;16.92;14.88;;;13.50;99.90;;;;;;5025188;28;20206;-50
2022/05/08 03:26:08;;;;;;;19.23;15.23;;;13.50;99.90;;;;;;5013121;28;20137;-53
2022/05/08 03:28:35;;;;;;;19.33;15.00;;;13.50;99.90;;;;;;5010400;28;20030;-51
2022/05/08 03:31:01;;;;;;;19.35;15.23;;;13.50;99.90;;;;;;5013263;28;20041;-54
2022/05/08 03:33:28;;;;;;;18.88;15.02;;;13.50;99.90;;;;;;5012634;28;20121;-51
2022/05/08 03:35:54;;;;;;;16.83;14.55;;;13.50;99.90;;;;;;5012409;28;20034;-52
2022/05/08 03:38:19;;;;;;;16.20;14.35;;;13.70;99.90;;;;;;5012084;28;20508;-52
2022/05/08 03:40:45;;;;;;;15.52;13.85;;;13.70;99.90;;;;;;5012346;28;20037;-55
2022/05/08 03:43:11;;;;;;;19.48;15.35;;;13.70;99.90;;;;;;5011027;28;20037;-54
2022/05/08 03:45:36;;;;;;;17.77;14.73;;;13.60;99.90;;;;;;5012175;28;20030;-51
2022/05/08 03:48:02;;;;;;;18.20;15.10;;;13.60;99.90;;;;;;5011661;28;20042;-51
2022/05/08 03:50:29;;;;;;;16.27;14.57;;;13.60;99.90;;;;;;5012109;28;20037;-55
2022/05/08 03:52:57;;;;;;;16.70;14.65;;;13.60;99.90;;;;;;5009988;28;20129;-57
2022/05/08 03:55:22;;;;;;;16.27;14.57;;;13.50;99.90;;;;;;5011503;28;20030;-53
2022/05/08 03:57:48;;;;;;;15.90;14.20;;;13.70;99.90;;;;;;5012011;28;20620;-56
2022/05/08 04:00:15;;;;;;;16.33;13.90;;;13.70;99.90;;;;;;5014358;28;20231;-54
2022/05/08 04:02:41;;;;;;;16.05;14.15;;;13.80;99.90;;;;;;5013792;28;20061;-54
2022/05/08 04:05:07;;;;;;;15.82;13.68;;;13.70;99.90;;;;;;5018358;28;20508;-55
2022/05/08 04:07:33;;;;;;;16.75;14.20;;;13.70;99.90;;;;;;5015085;28;20116;-53
2022/05/08 04:09:59;;;;;;;16.33;14.55;;;13.50;99.90;;;;;;5015102;28;20117;-52
2022/05/08 04:12:26;;;;;;;16.23;13.85;;;13.50;99.90;;;;;;5014955;28;20038;-59
2022/05/08 04:14:52;;;;;;;17.52;15.10;;;13.50;99.90;;;;;;5014746;28;20034;-51
2022/05/08 04:17:18;;;;;;;17.55;14.23;;;13.40;99.90;;;;;;5014908;28;20669;-52
2022/05/08 04:19:44;;;;;;;15.00;13.48;;;13.40;99.90;;;;;;5014892;28;20026;-50
2022/05/08 04:24:54;;;;;;;15.27;13.68;;;13.40;99.90;;;;;;5014789;28;20062;-54
2022/05/08 04:27:20;;;;;;;15.07;13.48;;;13.40;99.90;;;;;;5015497;28;20177;-53
2022/05/08 04:29:45;;;;;;;16.65;13.48;;;13.30;99.90;;;;;;5014187;28;20030;-51
2022/05/08 04:32:11;;;;;;;16.75;13.60;;;13.40;99.90;;;;;;5015334;28;20033;-52
2022/05/08 04:34:37;;;;;;;16.63;14.40;;;13.60;99.90;;;;;;5014943;28;20450;-54
2022/05/08 04:37:03;;;;;;;15.60;12.77;;;13.50;99.90;;;;;;5014678;28;20505;-52
2022/05/08 04:39:29;;;;;;;17.20;13.10;;;13.60;99.90;;;;;;5014900;28;20108;-54
2022/05/08 04:41:54;;;;;;;16.83;14.02;;;13.30;99.90;;;;;;5021571;28;20467;-53
2022/05/08 04:44:20;;;;;;;15.43;12.85;;;13.40;99.90;;;;;;5014604;28;20030;-50
2022/05/08 04:46:46;;;;;;;20.17;15.35;;;13.30;99.90;;;;;;5014984;28;20354;-54
2022/05/08 04:49:11;;;;;;;19.65;14.73;;;13.40;99.90;;;;;;5015074;28;20038;-56
2022/05/08 04:51:37;;;;;;;14.43;12.60;;;13.20;99.90;;;;;;5014877;28;20038;-54
2022/05/08 04:54:02;;;;;;;18.05;13.18;;;13.10;99.90;;;;;;5014823;28;20049;-54
2022/05/08 04:56:31;;;;;;;14.40;12.30;;;13.00;99.90;;;;;;5014145;28;20033;-51
2022/05/08 04:58:57;;;;;;;14.90;12.20;;;13.20;99.90;;;;;;5014041;28;20572;-52
2022/05/08 05:01:24;;;;;;;15.15;11.65;;;13.30;99.90;;;;;;5014473;28;20034;-52
2022/05/08 05:03:50;;;;;;;14.55;11.30;;;13.30;99.90;;;;;;5013585;28;20551;-51
2022/05/08 05:06:17;;;;;;;18.92;11.80;;;13.20;99.90;;;;;;5014292;28;20029;-55
2022/05/08 05:08:43;;;;;;;16.98;11.10;;;13.10;99.90;;;;;;5014028;28;20502;-52
2022/05/08 05:11:09;;;;;;;17.80;11.63;;;13.10;99.90;;;;;;5013629;28;20041;-54
2022/05/08 05:13:38;;;;;;;17.65;10.82;;;13.20;99.90;;;;;;5014705;28;20488;-54
2022/05/08 05:16:05;;;;;;;12.95;10.68;;;13.20;99.90;;;;;;5013600;28;20069;-53
2022/05/08 05:18:30;;;;;;;15.55;11.90;;;13.10;99.90;;;;;;5008138;28;20528;-50
2022/05/08 05:20:56;;;;;;;15.85;11.43;;;13.10;99.90;;;;;;5013275;28;20046;-52
2022/05/08 05:23:21;;;;;;;14.90;12.10;;;13.00;99.90;;;;;;5014578;28;20425;-54
2022/05/08 05:25:49;;;;;;;16.05;11.73;;;13.10;99.90;;;;;;5014353;28;20445;-54
2022/05/08 05:28:15;;;;;;;11.93;10.10;;;13.10;99.90;;;;;;5013864;28;20348;-53
2022/05/08 05:30:40;;;;;;;17.83;11.63;;;13.10;99.90;;;;;;5014326;28;20127;-56
2022/05/08 05:33:07;;;;;;;14.00;11.18;;;13.00;99.90;;;;;;5013435;28;20046;-56
2022/05/08 05:35:38;;;;;;;12.57;9.80;;;13.00;99.90;;;;;;5013823;28;20505;-53
2022/05/08 05:38:04;;;;;;;14.68;11.02;;;12.90;99.90;;;;;;5013290;28;20334;-56
2022/05/08 05:40:29;;;;;;;13.45;11.40;;;12.90;99.90;;;;;;5013585;28;20037;-51
2022/05/08 05:42:57;;;;;;;12.15;10.43;;;12.90;99.90;;;;;;5013616;28;20061;-54
2022/05/08 05:45:23;;;;;;;14.25;10.82;;;12.80;99.90;;;;;;5013667;28;20084;-54
2022/05/08 05:47:49;;;;;;;13.02;10.80;;;13.00;99.90;;;;;;5013948;28;20046;-52
2022/05/08 05:50:15;;;;;;;13.43;11.30;;;13.10;99.90;;;;;;5013645;28;20456;-52
2022/05/08 05:52:41;;;;;;;15.77;10.80;;;13.00;99.90;;;;;;5013224;28;20048;-52
2022/05/08 05:55:07;;;;;;;13.88;11.00;;;13.10;99.90;;;;;;5012526;28;20439;-53
2022/05/08 05:57:34;;;;;;;17.88;11.65;;;13.00;99.90;;;;;;5013682;28;20474;-52
2022/05/08 05:59:59;;;;;;;14.13;10.20;;;13.00;99.90;;;;;;5013143;28;20038;-50
2022/05/08 06:02:25;;;;;;;15.25;10.75;;;12.90;99.90;;;;;;5012548;28;20419;-53
2022/05/08 06:04:50;;;;;;;14.27;11.07;;;13.00;99.90;;;;;;5011868;28;20434;-55
2022/05/08 06:07:16;;;;;;;14.82;10.82;;;13.00;99.90;;;;;;5011844;28;20366;-50
2022/05/08 06:09:42;;;;;;;12.07;9.77;;;13.20;99.90;;;;;;5013165;28;20119;-54
2022/05/08 06:12:08;;;;;;;12.38;9.25;;;13.20;99.90;;;;;;5010839;28;20038;-53
2022/05/08 06:14:33;;;;;;;18.65;10.13;;;13.30;99.90;;;;;;5012489;28;20405;-56
2022/05/08 06:16:59;;;;;;;15.73;9.63;;;13.30;99.90;;;;;;5012616;28;20666;-52
2022/05/08 06:19:24;;;;;;;14.90;9.73;;;13.40;99.90;;;;;;5011144;28;20042;-54
2022/05/08 06:21:50;;;;;;;13.77;9.23;;;13.40;99.90;;;;;;5012692;28;20025;-54
2022/05/08 06:24:15;;;;;;;13.40;9.18;;;13.40;99.90;;;;;;5013126;28;20026;-53
2022/05/08 06:26:41;;;;;;;19.05;10.07;;;13.40;99.90;;;;;;5013840;28;20046;-55
2022/05/08 06:29:07;;;;;;;12.13;8.65;;;13.40;99.90;;;;;;5011434;28;20041;-54
2022/05/08 06:31:32;;;;;;;15.60;8.85;;;13.40;99.90;;;;;;5012441;28;20029;-53
2022/05/08 06:33:58;;;;;;;15.13;8.73;;;13.40;99.90;;;;;;5012426;28;20050;-54
2022/05/08 06:36:26;;;;;;;13.45;8.68;;;13.50;99.90;;;;;;5016021;28;20088;-52
2022/05/08 06:38:52;;;;;;;16.40;8.60;;;13.40;99.90;;;;;;5012878;28;20190;-53
2022/05/08 06:41:18;;;;;;;18.50;9.20;;;13.50;99.90;;;;;;5012315;28;20038;-54
2022/05/08 06:43:44;;;;;;;14.35;7.82;;;13.30;99.90;;;;;;5013178;28;20172;-50
2022/05/08 06:46:10;;;;;;;22.98;9.88;;;13.40;99.90;;;;;;5012715;28;20045;-56
2022/05/08 06:48:36;;;;;;;16.10;8.75;;;13.60;99.90;;;;;;5011184;28;20034;-51
2022/05/08 06:51:03;;;;;;;12.00;8.32;;;13.40;99.90;;;;;;5012278;28;20626;-53
2022/05/08 06:53:29;;;;;;;15.00;8.82;;;13.50;99.90;;;;;;5011076;28;20041;-53
2022/05/08 06:55:54;;;;;;;14.20;8.98;;;13.50;99.90;;;;;;5013171;28;20026;-56
2022/05/08 06:58:20;;;;;;;11.98;8.45;;;13.40;99.90;;;;;;5011158;28;20038;-52
2022/05/08 07:03:31;;;;;;;15.68;8.70;;;13.60;99.90;;;;;;5008741;28;20505;-55
2022/05/08 07:05:57;;;;;;;17.23;8.80;;;13.70;99.90;;;;;;5010126;28;20088;-54
2022/05/08 07:08:23;;;;;;;20.45;9.43;;;13.40;99.90;;;;;;5015866;28;20373;-56
2022/05/08 07:10:49;;;;;;;16.92;9.45;;;13.50;99.90;;;;;;5011710;28;20030;-53
2022/05/08 07:13:15;;;;;;;12.10;8.43;;;13.60;99.90;;;;;;5011941;28;20052;-55
2022/05/08 07:15:40;;;;;;;16.02;7.95;;;13.70;99.90;;;;;;5008670;28;20034;-55
2022/05/08 07:18:06;;;;;;;18.83;10.68;;;13.80;99.90;;;;;;5006408;28;20041;-56
2022/05/08 07:20:32;;;;;;;20.02;8.98;;;13.90;99.90;;;;;;5010686;28;20026;-57
2022/05/08 07:22:58;;;;;;;13.90;8.70;;;14.00;99.90;;;;;;5011522;28;20037;-55
2022/05/08 07:25:23;;;;;;;16.85;9.05;;;14.10;99.90;;;;;;5011934;28;20505;-59
2022/05/08 07:27:49;;;;;;;15.55;7.75;;;14.20;99.90;;;;;;5011842;28;20068;-59
2022/05/08 07:30:15;;;;;;;17.52;7.95;;;14.40;99.90;;;;;;5011510;28;20057;-54
2022/05/08 07:32:41;;;;;;;14.88;8.35;;;14.40;99.90;;;;;;5017351;28;20393;-58
2022/05/08 07:37:51;;;;;;;14.02;8.48;;;14.30;99.90;;;;;;5028748;28;20034;-54
2022/05/08 07:40:16;;;;;;;13.95;8.77;;;14.20;99.90;;;;;;5015921;28;20033;-58
2022/05/08 07:42:42;;;;;;;16.50;8.43;;;14.40;99.90;;;;;;5014781;28;20029;-55
2022/05/08 07:45:08;;;;;;;18.83;8.63;;;14.30;99.90;;;;;;5015026;28;20390;-55
2022/05/08 07:47:33;;;;;;;13.25;7.68;;;14.30;99.90;;;;;;5015981;28;20034;-59
2022/05/08 07:49:59;;;;;;;13.13;7.78;;;14.50;99.90;;;;;;5033172;28;20503;-57
2022/05/08 07:52:24;;;;;;;17.75;8.80;;;14.40;99.80;;;;;;5022319;28;20037;-58
2022/05/08 07:54:50;;;;;;;12.18;7.53;;;14.40;99.90;;;;;;5014818;28;20088;-58
2022/05/08 07:57:16;;;;;;;14.60;7.78;;;14.40;99.90;;;;;;5006453;28;20022;-57
2022/05/08 07:59:41;;;;;;;19.63;7.88;;;14.50;99.90;;;;;;5008790;28;20049;-57
2022/05/08 08:02:08;;;;;;;13.25;8.00;;;14.80;99.70;;;;;;5014479;28;20022;-58
2022/05/08 08:04:37;;;;;;;11.65;7.40;;;14.60;99.70;;;;;;5015531;28;20030;-58
2022/05/08 08:07:03;;;;;;;15.55;7.43;;;14.60;99.90;;;;;;5013123;28;20458;-55
2022/05/08 08:09:29;;;;;;;15.18;7.70;;;14.80;99.80;;;;;;5010426;28;20389;-56
2022/05/08 08:11:54;;;;;;;14.13;7.43;;;14.80;99.80;;;;;;5011855;28;20045;-57
2022/05/08 08:14:20;;;;;;;16.13;8.52;;;14.80;99.70;;;;;;5010527;28;20037;-58
2022/05/08 08:16:46;;;;;;;17.33;8.05;;;14.90;99.60;;;;;;5014970;28;20044;-59
2022/05/08 08:19:12;;;;;;;17.08;7.95;;;15.10;99.60;;;;;;5013735;28;20050;-55
2022/05/08 08:21:37;;;;;;;14.50;8.02;;;15.10;99.20;;;;;;5010779;28;20034;-56
2022/05/08 08:24:03;;;;;;;12.75;7.45;;;15.30;98.90;;;;;;5013664;28;20022;-58
2022/05/08 08:26:29;;;;;;;17.45;8.00;;;15.20;98.80;;;;;;5014176;28;20018;-56
2022/05/08 08:29:00;;;;;;;12.50;8.05;;;15.20;98.80;;;;;;5007231;28;20070;-61
2022/05/08 08:31:25;;;;;;;12.50;7.32;;;15.40;98.60;;;;;;5014564;28;20032;-57
2022/05/08 08:33:51;;;;;;;15.88;8.18;;;15.60;98.20;;;;;;5013544;28;20502;-57
2022/05/08 08:36:17;;;;;;;17.50;8.18;;;15.70;98.10;;;;;;5011512;28;20549;-55
2022/05/08 08:38:42;;;;;;;16.85;7.95;;;15.90;97.70;;;;;;5013378;28;20045;-57
2022/05/08 08:41:08;;;;;;;14.05;7.78;;;15.90;97.90;;;;;;5013177;28;20037;-57
2022/05/08 08:47:42;;;;;;;14.60;7.97;;;16.00;97.30;;;;;;5013274;28;20437;-61
2022/05/08 08:49:22;;;;;;;22.10;9.73;;;15.90;97.00;;;;;;5013168;28;20538;-58
2022/05/08 08:51:49;;;;;;;12.77;7.88;;;15.80;97.20;;;;;;5012025;28;20081;-59
2022/05/08 08:54:22;;;;;;;15.20;8.38;;;15.80;97.10;;;;;;5006988;28;20482;-57
2022/05/08 08:56:50;;;;;;;17.05;8.48;;;15.80;97.00;;;;;;5007934;28;20042;-57
2022/05/08 08:59:16;;;;;;;15.23;8.40;;;16.00;97.10;;;;;;5013965;28;20472;-54
2022/05/08 09:01:43;;;;;;;14.15;8.00;;;15.90;97.30;;;;;;5008520;28;20045;-54
2022/05/08 09:04:09;;;;;;;16.13;8.43;;;16.10;96.90;;;;;;5013313;28;20030;-55
2022/05/08 09:06:43;;;;;;;16.58;8.98;;;16.20;97.00;;;;;;5010749;28;20065;-58
2022/05/08 09:09:29;;;;;;;13.98;8.73;;;16.40;96.90;;;;;;5013602;28;20029;-58
2022/05/08 09:11:56;;;;;;;18.58;8.65;;;16.50;96.90;;;;;;4993271;28;20439;-55
2022/05/08 09:14:36;;;;;;;18.58;9.50;;;16.60;96.70;;;;;;5003881;28;20037;-56
2022/05/08 09:17:04;;;;;;;14.02;7.95;;;16.30;97.10;;;;;;5013039;28;20509;-55
2022/05/08 09:19:50;;;;;;;16.58;8.57;;;16.30;96.90;;;;;;5008555;28;20041;-56
2022/05/08 09:22:18;;;;;;;17.92;9.13;;;16.60;96.60;;;;;;5011147;28;20068;-52
2022/05/08 09:24:52;;;;;;;18.27;8.48;;;16.60;96.30;;;;;;5009230;28;20425;-55
2022/05/08 09:27:18;;;;;;;14.05;9.10;;;16.60;96.30;;;;;;5005166;28;20487;-54
2022/05/08 09:29:44;;;;;;;14.82;8.10;;;16.50;96.00;;;;;;5012618;28;20078;-55
2022/05/08 09:32:38;;;;;;;16.00;9.60;;;16.50;95.80;;;;;;5010859;28;20534;-55
2022/05/08 09:35:05;;;;;;;12.68;7.50;;;16.60;95.60;;;;;;5011685;28;20041;-53
2022/05/08 09:37:31;;;;;;;16.50;8.05;;;16.60;96.10;;;;;;5011065;28;20063;-55
2022/05/08 09:40:19;;;;;;;15.48;8.52;;;16.60;96.20;;;;;;5013424;28;20117;-52
2022/05/08 09:42:48;;;;;;;16.52;8.52;;;16.40;96.20;;;;;;5007701;28;20030;-53
2022/05/08 09:45:14;;;;;;;14.57;8.20;;;16.40;95.90;;;;;;5012913;28;20041;-56
2022/05/08 09:47:44;;;;;;;13.93;8.43;;;16.30;96.10;;;;;;5010728;28;20041;-53
2022/05/08 09:50:11;;;;;;;16.05;7.25;;;16.50;95.80;;;;;;5013019;28;20088;-59
2022/05/08 09:52:41;;;;;;;17.67;8.32;;;16.60;95.30;;;;;;5011806;28;20045;-54
2022/05/08 09:55:08;;;;;;;12.10;7.28;;;16.80;94.90;;;;;;5014127;28;20034;-50
2022/05/08 09:57:35;;;;;;;14.93;8.80;;;17.00;95.10;;;;;;5012794;28;20035;-56
2022/05/08 10:00:02;;;;;;;14.50;7.60;;;16.90;95.30;;;;;;5012820;28;20127;-58
2022/05/08 10:02:27;;;;;;;12.80;7.75;;;16.90;95.10;;;;;;5011779;28;20034;-55
2022/05/08 10:04:53;;;;;;;15.52;8.18;;;16.80;95.10;;;;;;5010882;28;20421;-51
2022/05/08 10:07:21;;;;;;;15.15;8.70;;;16.80;94.90;;;;;;5013617;28;20061;-56
2022/05/08 10:15:29;;;;;;;15.45;7.05;;;16.60;94.70;;;;;;5012049;28;20037;-55
2022/05/08 10:18:27;;;;;;;15.13;8.38;;;17.00;94.70;;;;;;5031776;28;20482;-53
2022/05/08 10:21:02;;;;;;;14.52;7.88;;;17.20;94.10;;;;;;5032006;28;20049;-53
2022/05/08 10:23:40;;;;;;;13.73;8.13;;;17.30;93.90;;;;;;5022380;28;20123;-54
2022/05/08 10:26:15;;;;;;;11.10;6.70;;;17.40;94.20;;;;;;5012878;28;20041;-55
2022/05/08 10:29:12;;;;;;;13.77;7.60;;;17.50;92.70;;;;;;5000903;28;20037;-51
2022/05/08 10:31:46;;;;;;;12.02;6.85;;;17.50;93.00;;;;;;5011517;28;20037;-54
2022/05/08 10:34:13;;;;;;;13.07;7.50;;;17.40;93.40;;;;;;5012314;28;20092;-52
2022/05/08 10:36:40;;;;;;;17.35;8.88;;;17.70;93.10;;;;;;5011738;28;20280;-50
2022/05/08 10:39:42;;;;;;;14.75;8.88;;;17.70;93.20;;;;;;5011513;28;20438;-54
2022/05/08 10:42:33;;;;;;;14.82;7.88;;;17.80;93.50;;;;;;5011603;28;20029;-52
2022/05/08 10:45:00;;;;;;;17.70;10.10;;;18.00;93.60;;;;;;4992998;28;20109;-51
2022/05/08 10:47:32;;;;;;;16.02;9.23;;;17.90;93.40;;;;;;4992779;28;20105;-51
2022/05/08 10:49:58;;;;;;;17.08;10.43;;;17.70;93.70;;;;;;4992381;28;20544;-53
2022/05/08 10:52:23;;;;;;;17.38;8.55;;;17.90;93.50;;;;;;4992521;28;20054;-57
2022/05/08 10:55:00;;;;;;;16.35;9.57;;;17.90;93.50;;;;;;4991742;28;20479;-52
2022/05/08 10:57:29;;;;;;;18.80;10.15;;;17.70;93.60;;;;;;5007283;28;20045;-54
2022/05/08 10:59:55;;;;;;;18.90;9.18;;;17.70;93.90;;;;;;4992090;28;20409;-55
2022/05/08 11:02:39;;;;;;;16.90;8.10;;;17.60;94.10;;;;;;4992716;28;20491;-52
2022/05/08 11:05:06;;;;;;;15.00;8.23;;;17.70;93.80;;;;;;4993146;28;20483;-49
2022/05/08 11:07:32;;;;;;;15.25;9.02;;;18.10;93.30;;;;;;5012227;28;20034;-51
2022/05/08 11:09:58;;;;;;;13.32;8.88;;;18.20;93.20;;;;;;5016319;28;20087;-49
2022/05/08 11:12:24;;;;;;;18.02;9.52;;;18.20;92.70;;;;;;5015961;28;20026;-53
2022/05/08 11:14:50;;;;;;;13.15;8.13;;;18.30;92.60;;;;;;5015148;28;20037;-52
2022/05/08 11:17:18;;;;;;;15.43;9.40;;;18.30;92.80;;;;;;5016391;28;20030;-53
2022/05/08 11:19:55;;;;;;;14.50;9.10;;;18.20;92.80;;;;;;5016058;28;20326;-58
2022/05/08 11:22:21;;;;;;;13.70;9.07;;;17.90;93.00;;;;;;5016496;28;20080;-53
2022/05/08 11:24:49;;;;;;;14.45;8.20;;;17.90;93.20;;;;;;5016260;28;20341;-52
2022/05/08 11:27:15;;;;;;;14.20;8.50;;;18.10;92.50;;;;;;5015796;28;20438;-54
2022/05/08 11:29:50;;;;;;;15.73;8.60;;;18.20;92.30;;;;;;5016472;28;20033;-53
2022/05/08 11:38:00;;;;;;;13.30;8.80;;;18.40;92.60;;;;;;5014491;28;20034;-52
2022/05/08 11:40:27;;;;;;;17.20;8.10;;;18.50;92.30;;;;;;5015886;28;20033;-53
2022/05/08 11:42:53;;;;;;;15.25;8.20;;;18.70;91.80;;;;;;5013720;28;20033;-49
2022/05/08 11:45:18;;;;;;;14.10;7.63;;;18.70;92.10;;;;;;5015568;28;20026;-52
2022/05/08 11:47:51;;;;;;;19.10;8.90;;;18.80;91.80;;;;;;5014863;28;20045;-54
2022/05/08 11:50:17;;;;;;;18.10;10.18;;;18.80;92.00;;;;;;5016004;28;20067;-51
2022/05/08 11:52:43;;;;;;;16.35;9.35;;;18.70;91.80;;;;;;5015586;28;20037;-51
2022/05/08 11:55:09;;;;;;;17.08;8.90;;;18.60;91.70;;;;;;5016421;28;20042;-53
2022/05/08 11:57:43;;;;;;;15.82;8.63;;;18.60;91.50;;;;;;5014473;28;20041;-53
2022/05/08 12:00:11;;;;;;;14.60;8.63;;;18.80;91.70;;;;;;5015843;28;20034;-54
2022/05/08 12:02:41;;;;;;;11.75;7.07;;;19.20;91.30;;;;;;5016083;28;20125;-52
2022/05/08 12:05:15;;;;;;;12.93;7.82;;;19.20;91.10;;;;;;5015473;28;20057;-52
2022/05/08 12:07:41;;;;;;;16.65;8.45;;;19.10;90.60;;;;;;5015394;28;20049;-55
2022/05/08 12:10:09;;;;;;;17.70;8.32;;;18.60;91.10;;;;;;5015093;28;20033;-55
2022/05/08 12:12:37;;;;;;;15.18;7.75;;;18.60;91.10;;;;;;5016070;28;20029;-50
2022/05/08 12:15:09;;;;;;;12.80;6.68;;;18.90;91.10;;;;;;5014846;28;20053;-54
2022/05/08 12:17:43;;;;;;;12.43;6.97;;;19.10;90.30;;;;;;5014802;28;20037;-56
2022/05/08 12:20:10;;;;;;;12.35;6.40;;;19.40;90.20;;;;;;5013599;28;20390;-53
2022/05/08 12:22:36;;;;;;;12.35;7.38;;;19.40;88.90;;;;;;5016726;28;20036;-53
2022/05/08 12:25:02;;;;;;;15.02;7.15;;;19.30;89.30;;;;;;5016867;28;20026;-53
2022/05/08 12:27:29;;;;;;;14.07;7.18;;;19.30;89.80;;;;;;5014742;28;20273;-52
2022/05/08 12:29:55;;;;;;;13.48;7.90;;;19.70;89.50;;;;;;5014804;28;20026;-54
2022/05/08 12:32:20;;;;;;;11.25;7.35;;;19.80;88.70;;;;;;5014363;28;20033;-52
2022/05/08 12:34:48;;;;;;;13.52;6.90;;;19.70;87.70;;;;;;5013352;28;20022;-51
2022/05/08 12:37:15;;;;;;;13.77;7.07;;;19.50;87.30;;;;;;5013782;28;20030;-52
2022/05/08 12:39:42;;;;;;;12.70;6.70;;;19.40;87.60;;;;;;5012724;28;20037;-55
2022/05/08 12:42:08;;;;;;;14.35;6.20;;;19.70;86.50;;;;;;5013055;28;20036;-53
2022/05/08 12:44:35;;;;;;;13.40;6.68;;;19.80;86.30;;;;;;5013598;28;20032;-55
2022/05/08 12:47:01;;;;;;;10.40;6.13;;;19.90;84.60;;;;;;5014077;28;20053;-53
2022/05/08 12:49:27;;;;;;;9.70;6.07;;;19.90;84.00;;;;;;5013570;28;20030;-55
2022/05/08 12:51:53;;;;;;;12.05;5.45;;;20.10;83.10;;;;;;5014056;28;20030;-56
2022/05/08 12:54:18;;;;;;;9.63;7.13;;;20.00;82.60;;;;;;5014722;28;20062;-54
2022/05/08 12:56:44;;;;;;;12.55;6.25;;;19.90;83.40;;;;;;5015216;28;20034;-51
2022/05/08 13:01:55;;;;;;;12.57;7.07;;;20.20;83.50;;;;;;5013800;28;20386;-55
2022/05/08 13:04:20;;;;;;;10.48;7.07;;;20.20;83.20;;;;;;5014506;28;20037;-55